Time;durP1;ratioP1;P1;durP2;ratioP2;P2;SDS_P1;SDS_P2;PMS_P1;PMS_P2;Temp;Humidity;BMP_temperature;BMP_pressure;BME280_temperature;BME280_humidity;BME280_pressure;Samples;Min_cycle;Max_cycle;Signal;HPM_P1;HPM_P2
2021/12/15 00:00:31;;;;;;;7.43;4.10;;;5.20;85.00;;;;;;4994892;28;20026;-73
2021/12/15 00:02:57;;;;;;;6.97;3.83;;;5.30;84.80;;;;;;4994845;28;20375;-73
2021/12/15 00:05:25;;;;;;;5.80;3.50;;;5.50;84.50;;;;;;4994937;28;20027;-72
2021/12/15 00:07:56;;;;;;;6.33;3.87;;;5.50;84.00;;;;;;4994899;28;20065;-75
2021/12/15 00:10:23;;;;;;;4.83;3.30;;;5.60;83.60;;;;;;4994660;28;20041;-73
2021/12/15 00:12:49;;;;;;;7.93;3.20;;;5.70;83.70;;;;;;4994310;28;20514;-71
2021/12/15 00:15:15;;;;;;;4.50;3.27;;;5.70;83.40;;;;;;4994351;28;20100;-71
2021/12/15 00:17:41;;;;;;;4.87;3.20;;;5.80;83.20;;;;;;4994413;28;20022;-71
2021/12/15 00:20:11;;;;;;;5.23;3.33;;;5.80;83.10;;;;;;4994502;28;20030;-70
2021/12/15 00:22:37;;;;;;;4.67;3.13;;;5.80;83.20;;;;;;4994584;28;20019;-71
2021/12/15 00:25:05;;;;;;;5.57;3.70;;;5.80;83.50;;;;;;4994457;28;20038;-72
2021/12/15 00:27:31;;;;;;;5.23;3.60;;;5.80;83.80;;;;;;4994660;28;20030;-72
2021/12/15 00:29:56;;;;;;;6.30;3.73;;;5.70;83.70;;;;;;4994313;28;20042;-72
2021/12/15 00:32:22;;;;;;;7.00;3.67;;;5.80;83.60;;;;;;4993755;28;20475;-73
2021/12/15 00:34:50;;;;;;;7.97;3.80;;;5.90;83.50;;;;;;4994476;28;20035;-74
2021/12/15 00:37:17;;;;;;;5.87;3.80;;;5.90;83.30;;;;;;4994229;28;20471;-70
2021/12/15 00:39:43;;;;;;;7.33;3.37;;;5.80;83.20;;;;;;4994253;28;20031;-72
2021/12/15 00:42:09;;;;;;;5.10;3.50;;;5.90;83.40;;;;;;4994004;28;20371;-72
2021/12/15 00:44:35;;;;;;;6.67;3.40;;;5.90;83.40;;;;;;4993954;28;20037;-74
2021/12/15 00:47:02;;;;;;;7.27;4.00;;;5.90;83.30;;;;;;4994035;28;20022;-71
2021/12/15 00:49:28;;;;;;;6.83;4.10;;;5.90;83.10;;;;;;4993688;28;20038;-73
2021/12/15 00:51:54;;;;;;;4.93;3.73;;;5.90;83.10;;;;;;4993968;28;20640;-74
2021/12/15 00:54:22;;;;;;;5.23;3.53;;;6.00;82.70;;;;;;4994208;28;20438;-73
2021/12/15 00:56:51;;;;;;;4.90;3.80;;;6.00;82.40;;;;;;4993945;28;20101;-73
2021/12/15 00:59:17;;;;;;;5.90;3.50;;;6.00;82.30;;;;;;4994068;28;20402;-70
2021/12/15 01:01:43;;;;;;;5.00;3.50;;;6.00;82.30;;;;;;4993951;28;20030;-74
2021/12/15 01:04:12;;;;;;;7.13;3.70;;;6.00;82.20;;;;;;4993855;28;20037;-72
2021/12/15 01:06:40;;;;;;;8.07;3.40;;;6.00;82.10;;;;;;4994075;28;20085;-71
2021/12/15 01:09:12;;;;;;;7.20;3.57;;;6.00;82.20;;;;;;4993685;28;20034;-70
2021/12/15 01:19:58;;;;;;;9.80;6.00;;;6.00;81.00;;;;;;4994031;28;20089;-73
2021/12/15 01:22:28;;;;;;;8.53;5.87;;;6.00;80.60;;;;;;4993621;28;20054;-73
2021/12/15 01:24:58;;;;;;;11.23;7.43;;;6.00;80.10;;;;;;4993763;28;20139;-73
2021/12/15 01:27:24;;;;;;;13.87;8.43;;;5.90;80.00;;;;;;4993626;28;20541;-73
2021/12/15 01:29:50;;;;;;;13.33;7.93;;;5.90;79.10;;;;;;4993328;28;20038;-73
2021/12/15 01:32:16;;;;;;;10.87;7.63;;;5.90;79.10;;;;;;4993377;28;20085;-73
2021/12/15 01:34:42;;;;;;;10.87;7.50;;;5.90;79.00;;;;;;4993659;28;20475;-77
2021/12/15 01:37:08;;;;;;;12.37;7.73;;;5.70;79.30;;;;;;4993436;28;20026;-73
2021/12/15 01:39:35;;;;;;;10.33;7.33;;;5.60;79.80;;;;;;4993602;28;20030;-73
2021/12/15 01:42:02;;;;;;;13.73;8.03;;;5.40;81.00;;;;;;4993326;28;20540;-71
2021/12/15 01:47:01;;;;;;;14.07;9.27;;;5.10;82.30;;;;;;4997397;28;20038;-72
2021/12/15 01:49:27;;;;;;;12.77;8.83;;;5.00;82.10;;;;;;4979992;28;20034;-74
2021/12/15 01:51:54;;;;;;;14.13;9.93;;;4.90;82.90;;;;;;4997140;28;20117;-74
2021/12/15 01:54:21;;;;;;;16.00;9.10;;;4.80;82.70;;;;;;4997550;28;20029;-75
2021/12/15 01:56:47;;;;;;;15.43;9.23;;;4.80;82.90;;;;;;4997338;28;20027;-74
2021/12/15 01:59:15;;;;;;;15.33;9.37;;;4.70;82.70;;;;;;4994610;28;20101;-73
2021/12/15 02:01:41;;;;;;;13.53;8.87;;;4.50;82.90;;;;;;4994385;28;20113;-73
2021/12/15 02:04:07;;;;;;;12.60;8.63;;;4.40;83.40;;;;;;4994766;28;20101;-76
2021/12/15 02:06:33;;;;;;;12.57;7.97;;;4.30;84.10;;;;;;4996675;28;20030;-74
2021/12/15 02:08:59;;;;;;;15.50;9.57;;;4.20;85.10;;;;;;4997112;28;20146;-74
2021/12/15 02:11:26;;;;;;;13.83;9.10;;;4.20;84.80;;;;;;4996941;28;20073;-74
2021/12/15 02:13:52;;;;;;;14.13;9.07;;;4.30;84.70;;;;;;4996512;28;20429;-74
2021/12/15 02:16:18;;;;;;;17.23;9.90;;;4.30;84.40;;;;;;4996802;28;20031;-75
2021/12/15 02:18:45;;;;;;;15.80;9.97;;;4.20;85.00;;;;;;4996926;28;20076;-73
2021/12/15 02:21:23;;;;;;;13.07;8.80;;;4.20;85.20;;;;;;4996818;28;20054;-77
2021/12/15 02:23:54;;;;;;;13.90;8.90;;;4.40;83.70;;;;;;4996829;28;20030;-75
2021/12/15 02:26:50;;;;;;;13.10;8.27;;;4.50;83.00;;;;;;4996624;28;20105;-77
2021/12/15 02:29:19;;;;;;;15.27;9.37;;;4.50;83.30;;;;;;4994880;28;20044;-73
2021/12/15 02:39:38;;;;;;;13.20;8.60;;;4.20;84.70;;;;;;4996372;28;20040;-72
2021/12/15 02:42:05;;;;;;;13.60;8.77;;;4.20;85.20;;;;;;4996328;28;20289;-75
2021/12/15 02:44:31;;;;;;;14.47;8.63;;;4.10;84.90;;;;;;4996143;28;20060;-74
2021/12/15 02:46:57;;;;;;;15.80;9.13;;;4.00;85.30;;;;;;4996435;28;20466;-74
2021/12/15 02:49:28;;;;;;;12.20;8.17;;;3.90;86.10;;;;;;4995969;28;20037;-74
2021/12/15 02:51:57;;;;;;;13.70;8.80;;;4.10;85.90;;;;;;4995965;28;20034;-76
2021/12/15 02:54:24;;;;;;;15.00;9.73;;;4.10;84.80;;;;;;4995670;28;20394;-73
2021/12/15 02:56:52;;;;;;;12.70;8.53;;;4.00;85.50;;;;;;4996138;28;20026;-72
2021/12/15 02:59:25;;;;;;;12.10;8.20;;;3.90;85.90;;;;;;4996046;28;20027;-71
2021/12/15 03:02:05;;;;;;;12.75;8.85;;;4.00;86.30;;;;;;4996285;28;20029;-72
2021/12/15 03:07:15;;;;;;;13.57;7.63;;;4.10;84.00;;;;;;4995945;28;20027;-71
2021/12/15 03:17:39;;;;;;;13.83;8.17;;;4.10;84.60;;;;;;4996112;28;20037;-73
2021/12/15 03:20:08;;;;;;;11.57;8.27;;;4.20;84.30;;;;;;4995673;28;20030;-73
2021/12/15 03:22:34;;;;;;;11.23;7.50;;;4.20;84.00;;;;;;4995589;28;20173;-75
2021/12/15 03:24:59;;;;;;;12.27;8.10;;;4.10;84.20;;;;;;4995534;28;20546;-73
2021/12/15 03:33:15;;;;;;;13.13;8.40;;;4.20;84.60;;;;;;4995508;28;20038;-73
2021/12/15 03:36:03;;;;;;;13.83;8.43;;;4.10;84.50;;;;;;4995507;28;20080;-72
2021/12/15 03:38:30;;;;;;;13.23;7.83;;;4.10;84.30;;;;;;4995463;28;20113;-72
2021/12/15 03:40:56;;;;;;;13.03;8.00;;;4.00;84.50;;;;;;4995157;28;20077;-72
2021/12/15 03:43:23;;;;;;;9.77;6.97;;;3.90;84.90;;;;;;4995115;28;20026;-74
2021/12/15 03:45:53;;;;;;;9.07;6.67;;;3.80;86.20;;;;;;4995539;28;20023;-73
2021/12/15 03:48:22;;;;;;;9.90;6.70;;;3.70;86.90;;;;;;4995312;28;20510;-73
2021/12/15 03:50:49;;;;;;;9.63;6.03;;;3.70;87.00;;;;;;4995113;28;20039;-72
2021/12/15 03:53:16;;;;;;;8.33;5.73;;;3.80;86.60;;;;;;4995133;28;20046;-73
2021/12/15 03:55:42;;;;;;;9.90;6.10;;;3.90;85.90;;;;;;4995031;28;20495;-74
2021/12/15 03:58:11;;;;;;;9.43;6.33;;;4.10;84.70;;;;;;4995142;28;20027;-73
2021/12/15 04:00:44;;;;;;;7.40;5.30;;;4.10;84.50;;;;;;4995209;28;20104;-73
2021/12/15 04:03:19;;;;;;;;;;;4.10;84.60;;;;;;4995419;28;20019;-74
2021/12/15 04:05:44;;;;;;;6.67;4.70;;;4.10;84.50;;;;;;4994360;28;20060;-73
2021/12/15 04:08:10;;;;;;;7.53;5.00;;;4.10;84.70;;;;;;4994349;28;20415;-74
2021/12/15 04:10:36;;;;;;;6.87;4.83;;;4.10;84.80;;;;;;4994794;28;20046;-72
2021/12/15 04:13:02;;;;;;;8.43;5.00;;;4.10;85.00;;;;;;4977117;28;20018;-74
2021/12/15 04:15:30;;;;;;;7.30;5.00;;;4.10;85.30;;;;;;4994727;28;20049;-72
2021/12/15 04:18:02;;;;;;;7.77;5.20;;;4.20;85.50;;;;;;4994695;28;20105;-74
2021/12/15 04:20:31;;;;;;;8.73;5.35;;;4.20;84.80;;;;;;4994687;28;20019;-73
2021/12/15 04:23:00;;;;;;;8.43;5.20;;;4.20;84.30;;;;;;4994565;28;20022;-73
2021/12/15 04:25:29;;;;;;;7.40;5.13;;;4.10;84.70;;;;;;4994533;28;20022;-72
2021/12/15 04:27:58;;;;;;;9.80;5.50;;;4.20;84.50;;;;;;4977041;28;20019;-74
2021/12/15 04:30:26;;;;;;;8.63;5.03;;;4.10;84.20;;;;;;4994143;28;20031;-74
2021/12/15 04:32:54;;;;;;;8.10;5.43;;;4.10;84.20;;;;;;4994322;28;20402;-72
2021/12/15 04:35:20;;;;;;;7.20;4.90;;;4.10;83.80;;;;;;4994117;28;20429;-73
2021/12/15 04:37:47;;;;;;;7.90;4.90;;;4.00;83.90;;;;;;4994153;28;20026;-75
2021/12/15 04:40:15;;;;;;;8.27;4.80;;;4.10;83.80;;;;;;4994208;28;20050;-72
2021/12/15 04:42:43;;;;;;;7.43;4.40;;;4.00;84.30;;;;;;4994231;28;20521;-73
2021/12/15 04:45:12;;;;;;;8.73;4.50;;;3.90;84.00;;;;;;4994416;28;20122;-73
2021/12/15 04:47:38;;;;;;;7.80;4.57;;;3.80;84.80;;;;;;4994278;28;20495;-72
2021/12/15 04:50:05;;;;;;;6.73;4.20;;;3.80;85.00;;;;;;4994173;28;20510;-74
2021/12/15 04:52:32;;;;;;;6.37;4.10;;;3.80;85.60;;;;;;4993924;28;20027;-73
2021/12/15 04:55:00;;;;;;;10.87;5.17;;;3.70;86.30;;;;;;4994205;28;20118;-75
2021/12/15 04:57:28;;;;;;;9.43;4.53;;;3.60;86.40;;;;;;4994328;28;20029;-78
2021/12/15 04:59:55;;;;;;;7.93;4.83;;;3.50;86.30;;;;;;4993967;28;20033;-75
2021/12/15 05:02:22;;;;;;;7.13;5.23;;;3.50;86.40;;;;;;4993911;28;20490;-74
2021/12/15 05:04:49;;;;;;;9.80;5.53;;;3.40;85.60;;;;;;4994007;28;20026;-74
2021/12/15 05:07:16;;;;;;;8.93;5.87;;;3.40;86.30;;;;;;4994021;28;20034;-76
2021/12/15 05:09:44;;;;;;;10.40;5.93;;;3.30;86.50;;;;;;4993776;28;20117;-75
2021/12/15 05:12:10;;;;;;;10.87;5.50;;;3.20;86.80;;;;;;4993814;28;20377;-74
2021/12/15 05:14:35;;;;;;;9.83;6.20;;;3.20;86.90;;;;;;4993699;28;20034;-75
2021/12/15 05:17:01;;;;;;;8.33;5.63;;;3.00;86.40;;;;;;4993787;28;20033;-73
2021/12/15 05:19:27;;;;;;;10.50;6.10;;;3.10;87.10;;;;;;4993620;28;20390;-73
2021/12/15 05:21:56;;;;;;;10.20;5.80;;;3.10;86.80;;;;;;4993730;28;20077;-73
2021/12/15 05:26:54;;;;;;;10.10;6.40;;;3.20;86.30;;;;;;4993547;28;20086;-73
2021/12/15 05:29:20;;;;;;;11.20;6.27;;;3.10;85.40;;;;;;4993591;28;20386;-72
2021/12/15 05:31:47;;;;;;;10.43;6.10;;;3.00;86.00;;;;;;4993812;28;20030;-74
2021/12/15 05:34:13;;;;;;;8.97;6.53;;;3.00;86.00;;;;;;4993552;28;20046;-74
2021/12/15 05:36:40;;;;;;;11.93;7.23;;;2.90;86.60;;;;;;4993511;28;20079;-73
2021/12/15 05:39:06;;;;;;;12.77;7.30;;;3.00;86.60;;;;;;4993537;28;20146;-72
2021/12/15 05:41:34;;;;;;;11.27;6.83;;;3.00;86.20;;;;;;4993768;28;20034;-74
2021/12/15 05:44:02;;;;;;;12.57;6.73;;;2.90;86.60;;;;;;4993610;28;20026;-73
2021/12/15 05:46:28;;;;;;;11.67;6.90;;;2.90;87.40;;;;;;4993782;28;20471;-74
2021/12/15 05:48:53;;;;;;;10.03;6.57;;;2.90;86.70;;;;;;4993577;28;20065;-77
2021/12/15 05:51:19;;;;;;;11.37;5.90;;;2.80;88.40;;;;;;4994127;28;20118;-73
2021/12/15 05:53:46;;;;;;;9.40;5.60;;;2.90;87.90;;;;;;4993449;28;20425;-74
2021/12/15 05:56:12;;;;;;;10.60;6.40;;;3.00;88.10;;;;;;4993821;28;20170;-73
2021/12/15 05:58:38;;;;;;;11.70;5.57;;;3.10;86.80;;;;;;4993492;28;20054;-75
2021/12/15 06:01:05;;;;;;;10.20;6.33;;;3.20;86.60;;;;;;4993758;28;20069;-73
2021/12/15 06:03:31;;;;;;;11.53;5.30;;;3.30;86.60;;;;;;4993087;28;20045;-75
2021/12/15 06:05:57;;;;;;;12.93;5.70;;;3.40;85.60;;;;;;4993816;28;20039;-74
2021/12/15 06:08:23;;;;;;;8.80;5.53;;;3.40;85.50;;;;;;4993283;28;20022;-73
2021/12/15 06:10:49;;;;;;;8.70;5.73;;;3.40;86.10;;;;;;4992974;28;20034;-74
2021/12/15 06:13:15;;;;;;;11.73;6.33;;;3.40;87.30;;;;;;4993203;28;20406;-73
2021/12/15 06:15:42;;;;;;;12.27;7.00;;;3.20;87.70;;;;;;4993619;28;20023;-73
2021/12/15 06:18:12;;;;;;;10.80;6.40;;;3.10;89.00;;;;;;4993239;28;20026;-74
2021/12/15 06:20:39;;;;;;;11.17;6.40;;;3.10;88.40;;;;;;4993248;28;20026;-69
2021/12/15 06:23:10;;;;;;;10.67;7.07;;;3.10;88.50;;;;;;4992971;28;20015;-68
2021/12/15 06:25:37;;;;;;;12.53;6.27;;;3.10;88.50;;;;;;4993081;28;20102;-68
2021/12/15 06:28:04;;;;;;;10.73;6.37;;;3.10;88.90;;;;;;4993122;28;20085;-70
2021/12/15 06:30:30;;;;;;;10.53;6.27;;;3.10;87.90;;;;;;4994923;28;20038;-70
2021/12/15 06:32:56;;;;;;;11.93;5.83;;;3.10;87.80;;;;;;4996356;28;20429;-70
2021/12/15 06:35:22;;;;;;;11.70;6.67;;;3.10;88.70;;;;;;4996393;28;20113;-70
2021/12/15 06:37:48;;;;;;;13.67;6.90;;;3.20;87.70;;;;;;4996524;28;20569;-70
2021/12/15 06:40:14;;;;;;;12.37;6.60;;;3.00;87.60;;;;;;4996328;28;20026;-70
2021/12/15 06:42:41;;;;;;;12.70;6.77;;;3.10;87.70;;;;;;4996167;28;20029;-70
2021/12/15 06:45:12;;;;;;;15.07;7.00;;;3.00;87.50;;;;;;4996221;28;20026;-70
2021/12/15 06:58:23;;;;;;;16.03;8.77;;;2.90;87.70;;;;;;4995293;28;20442;-70
2021/12/15 07:00:55;;;;;;;17.00;9.20;;;2.90;88.10;;;;;;4996071;28;20026;-70
2021/12/15 07:03:22;;;;;;;16.67;8.67;;;2.90;88.00;;;;;;4995090;28;20479;-71
2021/12/15 07:05:48;;;;;;;21.00;11.30;;;2.90;88.50;;;;;;4995257;28;20026;-71
2021/12/15 07:08:15;;;;;;;20.33;10.80;;;2.90;89.00;;;;;;4995821;28;20030;-70
2021/12/15 07:10:45;;;;;;;20.83;11.00;;;3.00;88.50;;;;;;4995101;28;20162;-70
2021/12/15 07:13:11;;;;;;;22.77;11.30;;;3.00;88.70;;;;;;4994998;28;20097;-70
2021/12/15 07:15:38;;;;;;;30.17;13.53;;;3.00;88.60;;;;;;4995479;28;20038;-71
2021/12/15 07:18:08;;;;;;;26.23;12.40;;;3.10;88.00;;;;;;4996129;28;20077;-69
2021/12/15 07:20:42;;;;;;;27.90;13.37;;;3.00;88.70;;;;;;4994011;28;20045;-70
2021/12/15 07:23:16;;;;;;;27.50;13.57;;;3.10;88.20;;;;;;4995338;28;20025;-69
2021/12/15 07:25:46;;;;;;;30.80;15.43;;;3.10;88.60;;;;;;4993874;28;20113;-71
2021/12/15 07:28:13;;;;;;;23.90;13.33;;;3.00;89.00;;;;;;4994100;28;20030;-70
2021/12/15 07:30:40;;;;;;;32.23;14.57;;;3.00;90.10;;;;;;4995721;28;20039;-72
2021/12/15 07:33:08;;;;;;;23.50;14.03;;;3.20;90.10;;;;;;4993722;28;20038;-70
2021/12/15 07:35:35;;;;;;;25.57;15.30;;;3.20;89.80;;;;;;4994879;28;20542;-69
2021/12/15 07:38:00;;;;;;;25.50;14.10;;;3.30;89.90;;;;;;4995138;28;20018;-69
2021/12/15 07:40:27;;;;;;;26.17;12.97;;;3.40;90.10;;;;;;4995266;28;20053;-69
2021/12/15 07:43:06;;;;;;;31.60;14.43;;;3.50;90.00;;;;;;4994961;28;20533;-69
2021/12/15 07:45:36;;;;;;;25.70;13.70;;;3.60;89.80;;;;;;4994376;28;20040;-69
2021/12/15 07:48:04;;;;;;;30.00;13.63;;;3.70;89.50;;;;;;4993959;28;20038;-70
2021/12/15 07:50:31;;;;;;;21.13;12.57;;;3.80;90.00;;;;;;4994996;28;20117;-69
2021/12/15 07:52:57;;;;;;;20.80;12.07;;;4.00;89.30;;;;;;4994413;28;20030;-69
2021/12/15 07:55:25;;;;;;;18.70;11.03;;;4.10;89.80;;;;;;4994996;28;20433;-69
2021/12/15 07:57:52;;;;;;;20.93;9.57;;;4.20;88.70;;;;;;4994942;28;20072;-69
2021/12/15 08:00:19;;;;;;;15.73;7.83;;;4.30;89.10;;;;;;4993504;28;20553;-69
2021/12/15 08:02:46;;;;;;;19.17;7.30;;;4.40;89.30;;;;;;4977136;28;20026;-68
2021/12/15 08:05:11;;;;;;;17.73;8.47;;;4.50;88.60;;;;;;4994740;28;20034;-70
2021/12/15 08:07:37;;;;;;;16.17;7.87;;;4.60;88.90;;;;;;4994698;28;20387;-69
2021/12/15 08:10:07;;;;;;;13.70;7.60;;;4.70;88.40;;;;;;4993330;28;20034;-69
2021/12/15 08:12:33;;;;;;;11.53;7.20;;;4.80;89.20;;;;;;4994098;28;20018;-69
2021/12/15 08:14:58;;;;;;;16.20;7.40;;;4.90;88.10;;;;;;4994061;28;20125;-69
2021/12/15 08:17:24;;;;;;;18.37;7.03;;;5.00;87.90;;;;;;4992625;28;20030;-71
2021/12/15 08:19:50;;;;;;;15.90;5.20;;;5.10;89.10;;;;;;4993337;28;20029;-68
2021/12/15 08:22:16;;;;;;;19.30;5.80;;;5.20;88.60;;;;;;4994631;28;20444;-70
2021/12/15 08:24:42;;;;;;;23.93;4.70;;;5.30;87.60;;;;;;4994343;28;20105;-68
2021/12/15 08:27:08;;;;;;;16.97;4.47;;;5.30;87.50;;;;;;4993800;28;20113;-68
2021/12/15 08:29:34;;;;;;;12.57;4.80;;;5.40;86.90;;;;;;4993677;28;20155;-68
2021/12/15 08:32:00;;;;;;;16.43;6.33;;;5.50;87.50;;;;;;4993830;28;20485;-68
2021/12/15 08:34:26;;;;;;;18.27;5.30;;;5.60;86.90;;;;;;4993982;28;20085;-66
2021/12/15 08:36:54;;;;;;;18.97;5.50;;;5.70;86.50;;;;;;4976799;28;20065;-68
2021/12/15 08:39:20;;;;;;;10.07;4.40;;;5.80;85.70;;;;;;4976802;28;20038;-66
2021/12/15 08:41:46;;;;;;;13.00;5.27;;;5.90;86.70;;;;;;4994314;28;20068;-65
2021/12/15 08:44:13;;;;;;;20.97;5.13;;;6.00;85.60;;;;;;4994254;28;20022;-67
2021/12/15 08:46:42;;;;;;;16.57;4.90;;;6.00;85.60;;;;;;4994363;28;20049;-66
2021/12/15 08:49:13;;;;;;;15.00;4.70;;;6.10;85.30;;;;;;4994291;28;20109;-68
2021/12/15 08:51:39;;;;;;;12.33;4.50;;;6.20;85.00;;;;;;4994016;28;20037;-66
2021/12/15 08:54:08;;;;;;;11.80;4.77;;;6.20;84.50;;;;;;4993532;28;20037;-65
2021/12/15 08:56:35;;;;;;;15.17;5.23;;;6.30;84.30;;;;;;4994021;28;20037;-67
2021/12/15 08:59:04;;;;;;;15.87;5.30;;;6.40;84.20;;;;;;4994037;28;20026;-66
2021/12/15 09:01:30;;;;;;;11.73;5.13;;;6.40;83.70;;;;;;4993897;28;20057;-67
2021/12/15 09:03:56;;;;;;;11.67;5.53;;;6.50;83.40;;;;;;4993865;28;20031;-65
2021/12/15 09:06:22;;;;;;;10.20;4.77;;;6.60;84.00;;;;;;4994014;28;20030;-65
2021/12/15 09:08:49;;;;;;;14.67;5.00;;;6.60;83.00;;;;;;4993855;28;20034;-66
2021/12/15 09:11:18;;;;;;;13.20;4.90;;;6.70;82.60;;;;;;4993871;28;20039;-69
2021/12/15 09:13:47;;;;;;;8.47;4.40;;;6.70;82.70;;;;;;4993700;28;20386;-67
2021/12/15 09:16:13;;;;;;;10.47;4.43;;;6.90;82.60;;;;;;4993842;28;20364;-68
2021/12/15 09:18:42;;;;;;;8.93;4.63;;;6.90;82.30;;;;;;4993846;28;20102;-67
2021/12/15 09:21:11;;;;;;;11.53;4.70;;;7.00;82.80;;;;;;4993657;28;20026;-68
2021/12/15 09:23:37;;;;;;;8.03;4.63;;;7.10;82.50;;;;;;4993662;28;20029;-69
2021/12/15 09:26:05;;;;;;;7.57;4.20;;;7.20;82.50;;;;;;4993496;28;20039;-68
2021/12/15 09:28:32;;;;;;;9.80;4.20;;;7.20;82.50;;;;;;4993047;28;20415;-68
2021/12/15 09:30:59;;;;;;;11.37;4.57;;;7.30;82.30;;;;;;4992139;28;20031;-69
2021/12/15 09:33:29;;;;;;;9.47;4.53;;;7.40;82.10;;;;;;4989691;28;20047;-70
2021/12/15 09:35:56;;;;;;;7.50;5.03;;;7.50;81.90;;;;;;4974853;28;20042;-66
2021/12/15 09:38:22;;;;;;;7.27;4.80;;;7.60;81.80;;;;;;4991718;28;20462;-70
2021/12/15 09:40:50;;;;;;;8.00;4.47;;;7.70;81.50;;;;;;4992109;28;20229;-66
2021/12/15 09:43:17;;;;;;;9.07;4.53;;;7.70;81.20;;;;;;4992166;28;20080;-67
2021/12/15 10:04:51;;;;;;;8.13;4.10;;;8.30;80.30;;;;;;4994009;28;20026;-67
2021/12/15 10:18:54;;;;;;;9.32;3.60;;;8.70;78.50;;;;;;4997101;28;20080;-71
2021/12/15 10:21:27;;;;;;;7.43;3.40;;;8.80;78.20;;;;;;4996197;28;20038;-71
2021/12/15 10:23:53;;;;;;;5.80;3.10;;;8.90;78.10;;;;;;4996671;28;20026;-70
2021/12/15 10:26:21;;;;;;;8.63;3.37;;;8.90;77.90;;;;;;4996819;28;20061;-68
2021/12/15 10:28:52;;;;;;;5.53;3.50;;;9.00;78.20;;;;;;4996866;28;20378;-68
2021/12/15 10:31:21;;;;;;;5.07;2.60;;;9.10;77.40;;;;;;4996635;28;20035;-67
2021/12/15 10:33:58;;;;;;;3.90;2.40;;;9.20;78.40;;;;;;4996016;28;20042;-67
2021/12/15 10:36:32;;;;;;;2.83;1.70;;;9.30;77.10;;;;;;4996135;28;20029;-67
2021/12/15 10:39:01;;;;;;;2.07;1.43;;;9.40;76.40;;;;;;4995401;28;20018;-67
2021/12/15 10:41:36;;;;;;;1.37;1.00;;;9.50;76.00;;;;;;4996477;28;20025;-66
2021/12/15 10:44:14;;;;;;;3.13;1.50;;;9.60;75.20;;;;;;4996379;28;20126;-66
2021/12/15 10:46:47;;;;;;;2.13;1.30;;;9.70;75.10;;;;;;4996224;28;20377;-68
2021/12/15 10:49:24;;;;;;;2.27;1.53;;;9.90;75.20;;;;;;4996253;28;20117;-66
2021/12/15 10:52:01;;;;;;;3.53;1.40;;;10.00;75.10;;;;;;4996204;28;20034;-68
2021/12/15 10:54:33;;;;;;;1.87;1.30;;;10.10;74.20;;;;;;4996401;28;20026;-68
2021/12/15 10:57:01;;;;;;;1.67;1.13;;;10.10;74.00;;;;;;4996534;28;20110;-68
2021/12/15 10:59:31;;;;;;;4.00;1.60;;;10.10;72.70;;;;;;4996130;28;20026;-68
2021/12/15 11:02:09;;;;;;;3.07;1.50;;;10.10;72.80;;;;;;4995846;28;20053;-69
2021/12/15 11:04:42;;;;;;;3.50;1.50;;;10.20;72.80;;;;;;4995171;28;20038;-68
2021/12/15 11:07:31;;;;;;;4.70;1.40;;;10.20;72.50;;;;;;4994445;28;20394;-68
2021/12/15 11:09:57;;;;;;;4.50;1.50;;;10.20;71.60;;;;;;4994811;28;20062;-67
2021/12/15 11:12:24;;;;;;;1.93;1.30;;;10.10;71.80;;;;;;4994671;28;20073;-68
2021/12/15 11:14:55;;;;;;;2.17;1.30;;;10.20;71.80;;;;;;4994837;28;20023;-68
2021/12/15 11:17:29;;;;;;;3.60;1.40;;;10.20;72.20;;;;;;4995463;28;20122;-69
2021/12/15 11:20:06;;;;;;;2.50;1.40;;;10.20;72.20;;;;;;4995641;28;20034;-68
2021/12/15 11:23:02;;;;;;;3.47;1.60;;;10.20;71.00;;;;;;4995533;28;20061;-72
2021/12/15 11:25:33;;;;;;;1.70;1.23;;;10.30;71.00;;;;;;4995804;28;20034;-72
2021/12/15 11:28:19;;;;;;;2.33;1.40;;;10.30;70.60;;;;;;4995808;28;20482;-69
2021/12/15 11:31:14;;;;;;;2.00;1.27;;;10.40;71.10;;;;;;4994130;28;20497;-69
2021/12/15 11:33:47;;;;;;;2.07;1.20;;;10.40;69.70;;;;;;4995190;28;20079;-68
2021/12/15 11:36:31;;;;;;;1.53;1.20;;;10.40;70.00;;;;;;4995374;28;20031;-69
2021/12/15 11:39:02;;;;;;;3.73;1.30;;;10.50;69.90;;;;;;4995379;28;20080;-69
2021/12/15 11:41:42;;;;;;;2.47;1.20;;;10.60;70.10;;;;;;4995181;28;20026;-70
2021/12/15 11:44:13;;;;;;;3.57;1.40;;;10.60;69.40;;;;;;4995215;28;20060;-71
2021/12/15 11:46:41;;;;;;;2.00;1.50;;;10.70;69.60;;;;;;4995455;28;20034;-70
2021/12/15 11:49:13;;;;;;;2.50;1.70;;;10.80;69.20;;;;;;4995314;28;20479;-70
2021/12/15 11:51:42;;;;;;;5.05;1.35;;;10.90;68.80;;;;;;4994316;28;20121;-70
2021/12/15 11:54:17;;;;;;;2.07;1.30;;;11.00;68.70;;;;;;4994676;28;20368;-69
2021/12/15 11:56:44;;;;;;;4.67;1.83;;;11.00;67.90;;;;;;4993858;28;20030;-70
2021/12/15 11:59:19;;;;;;;2.23;1.80;;;11.00;67.90;;;;;;4993864;28;20027;-70
2021/12/15 12:01:56;;;;;;;1.97;1.33;;;11.00;67.40;;;;;;4994170;28;20034;-70
2021/12/15 12:04:24;;;;;;;1.60;1.10;;;11.00;67.40;;;;;;4994178;28;20022;-69
2021/12/15 12:06:55;;;;;;;2.03;1.13;;;11.00;67.10;;;;;;4994676;28;20066;-70
2021/12/15 12:09:22;;;;;;;2.10;1.17;;;11.00;66.70;;;;;;4994639;28;20514;-69
2021/12/15 12:11:56;;;;;;;2.20;1.52;;;11.00;66.50;;;;;;4994581;28;20034;-71
2021/12/15 12:14:38;;;;;;;4.32;1.42;;;11.00;67.30;;;;;;4994607;28;20026;-70
2021/12/15 12:17:14;;;;;;;2.92;1.33;;;11.00;66.30;;;;;;4994192;28;20080;-70
2021/12/15 12:19:47;;;;;;;1.98;1.38;;;11.00;66.30;;;;;;4994450;28;20026;-72
2021/12/15 12:22:14;;;;;;;6.63;1.40;;;11.10;66.10;;;;;;4994225;28;20028;-69
2021/12/15 12:24:43;;;;;;;3.40;1.33;;;11.00;66.00;;;;;;4994039;28;20522;-69
2021/12/15 12:27:10;;;;;;;2.93;1.37;;;11.00;66.10;;;;;;4994066;28;20026;-71
2021/12/15 12:29:36;;;;;;;1.70;1.20;;;11.00;65.70;;;;;;4994131;28;20546;-69
2021/12/15 12:32:03;;;;;;;2.17;1.73;;;10.90;66.10;;;;;;4994153;28;20084;-70
2021/12/15 12:34:28;;;;;;;3.15;1.52;;;10.90;66.20;;;;;;4994450;28;20077;-71
2021/12/15 12:36:54;;;;;;;2.83;1.53;;;10.90;66.10;;;;;;4994519;28;20062;-69
2021/12/15 12:39:28;;;;;;;2.73;1.20;;;10.90;65.90;;;;;;4993372;28;20033;-70
2021/12/15 12:41:55;;;;;;;3.47;1.70;;;10.90;66.20;;;;;;4991537;28;20026;-69
2021/12/15 12:44:23;;;;;;;3.77;1.47;;;10.90;65.40;;;;;;4991392;28;20026;-71
2021/12/15 12:46:59;;;;;;;4.20;1.73;;;10.90;65.70;;;;;;4992745;28;20091;-70
2021/12/15 13:00:49;;;;;;;3.33;1.47;;;10.80;65.30;;;;;;4994136;28;20458;-69
2021/12/15 13:03:20;;;;;;;1.77;1.20;;;10.80;65.50;;;;;;4993635;28;20103;-70
2021/12/15 13:05:51;;;;;;;3.80;1.10;;;10.70;64.70;;;;;;4993538;28;20023;-70
2021/12/15 13:08:30;;;;;;;2.07;1.33;;;10.70;65.20;;;;;;4991541;28;20080;-70
2021/12/15 13:11:05;;;;;;;2.40;1.20;;;10.70;65.20;;;;;;4990972;28;20402;-70
2021/12/15 13:13:35;;;;;;;2.33;1.30;;;10.70;65.20;;;;;;4992364;28;20030;-70
2021/12/15 13:16:10;;;;;;;1.57;1.20;;;10.70;65.50;;;;;;4993529;28;20113;-70
2021/12/15 13:18:56;;;;;;;2.60;1.50;;;10.70;65.40;;;;;;4993390;28;20030;-70
2021/12/15 13:21:40;;;;;;;2.80;1.30;;;10.60;65.50;;;;;;4993486;28;20022;-70
2021/12/15 13:28:39;;;;;;;2.70;1.20;;;10.60;66.20;;;;;;4993750;28;20038;-70
2021/12/15 13:29:58;;;;;;;2.03;1.40;;;10.50;66.10;;;;;;4992223;28;20115;-71
2021/12/15 13:32:30;;;;;;;4.13;1.37;;;10.50;66.60;;;;;;4991762;28;20499;-73
2021/12/15 13:34:56;;;;;;;1.67;1.27;;;10.50;66.40;;;;;;4992057;28;20030;-72
2021/12/15 13:37:57;;;;;;;1.93;1.20;;;10.40;66.30;;;;;;4992049;28;20037;-70
2021/12/15 13:40:42;;;;;;;1.60;1.20;;;10.40;66.80;;;;;;4997016;28;20028;-69
2021/12/15 13:43:53;;;;;;;2.47;1.40;;;10.40;66.50;;;;;;4995802;28;20022;-69
2021/12/15 13:46:28;;;;;;;6.20;1.67;;;10.30;67.00;;;;;;4972852;28;20443;-69
2021/12/15 13:49:00;;;;;;;5.53;1.47;;;10.30;66.70;;;;;;4996756;28;20026;-69
2021/12/15 13:51:54;;;;;;;2.20;1.38;;;10.20;66.80;;;;;;4997371;28;20066;-70
2021/12/15 13:54:37;;;;;;;2.87;2.00;;;10.20;67.10;;;;;;4997242;28;20505;-71
2021/12/15 13:57:12;;;;;;;2.80;1.80;;;10.10;67.50;;;;;;4997280;28;20042;-70
2021/12/15 13:59:47;;;;;;;2.33;1.40;;;10.10;67.90;;;;;;4997303;28;20070;-70
2021/12/15 14:02:15;;;;;;;1.90;1.40;;;10.10;67.80;;;;;;4997087;28;20026;-70
2021/12/15 14:04:45;;;;;;;5.60;1.70;;;10.00;67.90;;;;;;4996997;28;20022;-71
2021/12/15 14:07:42;;;;;;;4.93;1.40;;;10.00;68.10;;;;;;4996935;28;20382;-70
2021/12/15 14:10:10;;;;;;;4.60;1.90;;;10.00;68.00;;;;;;4996744;28;20063;-72
2021/12/15 14:12:45;;;;;;;2.10;1.40;;;9.90;68.20;;;;;;4996803;28;20486;-70
2021/12/15 14:15:43;;;;;;;2.27;1.53;;;9.90;68.40;;;;;;4996058;28;20026;-69
2021/12/15 14:18:19;;;;;;;2.10;1.47;;;9.80;68.70;;;;;;4972166;28;20458;-69
2021/12/15 14:20:54;;;;;;;3.83;1.90;;;9.80;68.80;;;;;;4977608;28;20018;-69
2021/12/15 14:23:35;;;;;;;3.10;1.80;;;9.80;68.70;;;;;;4977488;28;20471;-68
2021/12/15 14:26:05;;;;;;;2.57;1.97;;;9.70;68.90;;;;;;4977301;28;20019;-68
2021/12/15 14:28:34;;;;;;;4.60;2.17;;;9.70;68.70;;;;;;4977252;28;20023;-68
2021/12/15 14:31:04;;;;;;;2.43;1.97;;;9.70;69.10;;;;;;4977221;28;20475;-67
2021/12/15 14:33:37;;;;;;;2.40;2.00;;;9.60;69.50;;;;;;4977134;28;20454;-68
2021/12/15 14:36:13;;;;;;;3.35;2.50;;;9.60;69.80;;;;;;4977165;28;20495;-68